sensor_id;sensor_type;location;lat;lon;timestamp;temperature;humidity
2489;DHT22;1255;48.716;9.124;2023-04-03T00:01:59;3.60;99.90
2489;DHT22;1255;48.716;9.124;2023-04-03T00:04:26;3.60;99.90
2489;DHT22;1255;48.716;9.124;2023-04-03T00:06:54;3.70;99.90
2489;DHT22;1255;48.716;9.124;2023-04-03T00:09:20;3.70;99.90
2489;DHT22;1255;48.716;9.124;2023-04-03T00:11:47;3.60;99.90
2489;DHT22;1255;48.716;9.124;2023-04-03T00:14:14;3.70;99.90
2489;DHT22;1255;48.716;9.124;2023-04-03T00:16:40;3.70;99.90
2489;DHT22;1255;48.716;9.124;2023-04-03T00:19:07;3.60;99.90
2489;DHT22;1255;48.716;9.124;2023-04-03T00:21:37;3.60;99.90
2489;DHT22;1255;48.716;9.124;2023-04-03T00:24:05;3.50;99.90
2489;DHT22;1255;48.716;9.124;2023-04-03T00:26:32;3.50;99.90
2489;DHT22;1255;48.716;9.124;2023-04-03T00:28:59;3.50;99.90
2489;DHT22;1255;48.716;9.124;2023-04-03T00:31:25;3.40;99.90
2489;DHT22;1255;48.716;9.124;2023-04-03T00:33:52;3.40;99.90
2489;DHT22;1255;48.716;9.124;2023-04-03T00:36:18;3.40;99.90
2489;DHT22;1255;48.716;9.124;2023-04-03T00:38:45;3.40;99.90
2489;DHT22;1255;48.716;9.124;2023-04-03T00:41:13;3.40;99.90
2489;DHT22;1255;48.716;9.124;2023-04-03T00:43:40;3.20;99.90
2489;DHT22;1255;48.716;9.124;2023-04-03T00:46:07;3.20;99.90
2489;DHT22;1255;48.716;9.124;2023-04-03T00:48:37;3.20;99.90
2489;DHT22;1255;48.716;9.124;2023-04-03T00:51:07;3.20;99.90
2489;DHT22;1255;48.716;9.124;2023-04-03T00:53:38;3.20;99.90
2489;DHT22;1255;48.716;9.124;2023-04-03T00:56:07;3.20;99.90
2489;DHT22;1255;48.716;9.124;2023-04-03T00:58:38;3.10;99.90
2489;DHT22;1255;48.716;9.124;2023-04-03T01:01:08;3.10;99.90
2489;DHT22;1255;48.716;9.124;2023-04-03T01:03:36;3.00;99.90
2489;DHT22;1255;48.716;9.124;2023-04-03T01:06:03;3.00;99.90
2489;DHT22;1255;48.716;9.124;2023-04-03T01:08:30;3.00;99.90
2489;DHT22;1255;48.716;9.124;2023-04-03T01:10:57;3.00;99.90
2489;DHT22;1255;48.716;9.124;2023-04-03T01:13:26;3.00;99.90
2489;DHT22;1255;48.716;9.124;2023-04-03T01:15:54;3.00;99.90
2489;DHT22;1255;48.716;9.124;2023-04-03T01:18:22;3.00;99.90
2489;DHT22;1255;48.716;9.124;2023-04-03T01:24:18;3.00;99.90
2489;DHT22;1255;48.716;9.124;2023-04-03T01:26:45;3.00;99.90
2489;DHT22;1255;48.716;9.124;2023-04-03T01:29:12;3.00;99.90
2489;DHT22;1255;48.716;9.124;2023-04-03T01:31:49;2.90;99.90
2489;DHT22;1255;48.716;9.124;2023-04-03T01:34:16;2.90;99.90
2489;DHT22;1255;48.716;9.124;2023-04-03T01:36:42;2.80;99.90
2489;DHT22;1255;48.716;9.124;2023-04-03T01:39:09;2.80;99.90
2489;DHT22;1255;48.716;9.124;2023-04-03T01:41:36;2.80;99.90
2489;DHT22;1255;48.716;9.124;2023-04-03T01:44:03;2.80;99.90
2489;DHT22;1255;48.716;9.124;2023-04-03T01:46:30;2.70;99.90
2489;DHT22;1255;48.716;9.124;2023-04-03T01:48:58;2.80;99.90
2489;DHT22;1255;48.716;9.124;2023-04-03T01:51:25;2.80;99.90
2489;DHT22;1255;48.716;9.124;2023-04-03T01:53:51;2.70;99.90
2489;DHT22;1255;48.716;9.124;2023-04-03T01:56:18;2.70;99.90
2489;DHT22;1255;48.716;9.124;2023-04-03T01:58:45;2.70;99.90
2489;DHT22;1255;48.716;9.124;2023-04-03T02:01:12;2.70;99.90
2489;DHT22;1255;48.716;9.124;2023-04-03T02:03:38;2.70;99.90
2489;DHT22;1255;48.716;9.124;2023-04-03T02:06:07;2.80;99.90
2489;DHT22;1255;48.716;9.124;2023-04-03T02:08:34;2.80;99.90
2489;DHT22;1255;48.716;9.124;2023-04-03T02:11:00;2.80;99.90
2489;DHT22;1255;48.716;9.124;2023-04-03T02:13:27;2.80;99.90
2489;DHT22;1255;48.716;9.124;2023-04-03T02:15:54;2.80;99.90
2489;DHT22;1255;48.716;9.124;2023-04-03T02:18:21;2.80;99.90
2489;DHT22;1255;48.716;9.124;2023-04-03T02:20:47;2.80;99.90
2489;DHT22;1255;48.716;9.124;2023-04-03T02:23:15;2.80;99.90
2489;DHT22;1255;48.716;9.124;2023-04-03T02:25:42;2.80;99.90
2489;DHT22;1255;48.716;9.124;2023-04-03T02:28:09;2.80;99.90
2489;DHT22;1255;48.716;9.124;2023-04-03T02:30:35;2.80;99.90
2489;DHT22;1255;48.716;9.124;2023-04-03T02:33:02;2.80;99.90
2489;DHT22;1255;48.716;9.124;2023-04-03T02:35:29;2.90;99.90
2489;DHT22;1255;48.716;9.124;2023-04-03T02:37:55;2.90;99.90
2489;DHT22;1255;48.716;9.124;2023-04-03T02:40:23;2.90;99.90
2489;DHT22;1255;48.716;9.124;2023-04-03T02:42:50;2.90;99.90
2489;DHT22;1255;48.716;9.124;2023-04-03T02:45:17;2.90;99.90
2489;DHT22;1255;48.716;9.124;2023-04-03T02:47:43;2.90;99.90
2489;DHT22;1255;48.716;9.124;2023-04-03T02:50:10;3.00;99.90
2489;DHT22;1255;48.716;9.124;2023-04-03T02:52:37;2.90;99.90
2489;DHT22;1255;48.716;9.124;2023-04-03T02:55:04;2.90;99.90
2489;DHT22;1255;48.716;9.124;2023-04-03T02:57:32;2.90;99.90
2489;DHT22;1255;48.716;9.124;2023-04-03T02:59:59;2.90;99.90
2489;DHT22;1255;48.716;9.124;2023-04-03T03:02:26;2.90;99.90
2489;DHT22;1255;48.716;9.124;2023-04-03T03:04:52;2.90;99.90
2489;DHT22;1255;48.716;9.124;2023-04-03T03:07:19;2.90;99.90
2489;DHT22;1255;48.716;9.124;2023-04-03T03:09:46;2.90;99.90
2489;DHT22;1255;48.716;9.124;2023-04-03T03:12:12;2.90;99.90
2489;DHT22;1255;48.716;9.124;2023-04-03T03:14:40;2.90;99.90
2489;DHT22;1255;48.716;9.124;2023-04-03T03:17:08;2.90;99.90
2489;DHT22;1255;48.716;9.124;2023-04-03T03:19:34;2.90;99.90
2489;DHT22;1255;48.716;9.124;2023-04-03T03:22:01;2.90;99.90
2489;DHT22;1255;48.716;9.124;2023-04-03T03:24:28;2.90;99.90
2489;DHT22;1255;48.716;9.124;2023-04-03T03:26:55;2.80;99.90
2489;DHT22;1255;48.716;9.124;2023-04-03T03:29:21;2.80;99.90
2489;DHT22;1255;48.716;9.124;2023-04-03T03:31:49;2.80;99.90
2489;DHT22;1255;48.716;9.124;2023-04-03T03:34:16;2.70;99.90
2489;DHT22;1255;48.716;9.124;2023-04-03T03:36:43;2.70;99.90
2489;DHT22;1255;48.716;9.124;2023-04-03T03:39:10;2.70;99.90
2489;DHT22;1255;48.716;9.124;2023-04-03T03:41:37;2.70;99.90
2489;DHT22;1255;48.716;9.124;2023-04-03T03:44:04;2.70;99.90
2489;DHT22;1255;48.716;9.124;2023-04-03T03:46:30;2.70;99.90
2489;DHT22;1255;48.716;9.124;2023-04-03T03:48:58;2.70;99.90
2489;DHT22;1255;48.716;9.124;2023-04-03T03:51:25;2.70;99.90
2489;DHT22;1255;48.716;9.124;2023-04-03T03:53:52;2.70;99.90
2489;DHT22;1255;48.716;9.124;2023-04-03T03:56:19;2.80;99.90
2489;DHT22;1255;48.716;9.124;2023-04-03T03:58:45;2.80;99.90
2489;DHT22;1255;48.716;9.124;2023-04-03T04:01:12;2.80;99.90
2489;DHT22;1255;48.716;9.124;2023-04-03T04:03:39;2.80;99.90
2489;DHT22;1255;48.716;9.124;2023-04-03T04:06:07;2.80;99.90
2489;DHT22;1255;48.716;9.124;2023-04-03T04:08:34;2.80;99.90
2489;DHT22;1255;48.716;9.124;2023-04-03T04:11:01;2.80;99.90
2489;DHT22;1255;48.716;9.124;2023-04-03T04:15:54;2.80;99.90
2489;DHT22;1255;48.716;9.124;2023-04-03T04:18:21;2.80;99.90
2489;DHT22;1255;48.716;9.124;2023-04-03T04:20:48;2.90;99.90
2489;DHT22;1255;48.716;9.124;2023-04-03T04:23:16;2.90;99.90
2489;DHT22;1255;48.716;9.124;2023-04-03T04:25:44;2.90;99.90
2489;DHT22;1255;48.716;9.124;2023-04-03T04:28:11;2.90;99.90
2489;DHT22;1255;48.716;9.124;2023-04-03T04:30:38;2.90;99.90
2489;DHT22;1255;48.716;9.124;2023-04-03T04:33:05;2.90;99.90
2489;DHT22;1255;48.716;9.124;2023-04-03T04:35:32;2.90;99.90
2489;DHT22;1255;48.716;9.124;2023-04-03T04:37:58;2.90;99.90
2489;DHT22;1255;48.716;9.124;2023-04-03T04:40:27;2.90;99.90
2489;DHT22;1255;48.716;9.124;2023-04-03T04:42:54;2.80;99.90
2489;DHT22;1255;48.716;9.124;2023-04-03T04:45:20;2.80;99.90
2489;DHT22;1255;48.716;9.124;2023-04-03T04:47:47;2.80;99.90
2489;DHT22;1255;48.716;9.124;2023-04-03T04:50:17;2.80;99.90
2489;DHT22;1255;48.716;9.124;2023-04-03T04:52:43;2.90;99.90
2489;DHT22;1255;48.716;9.124;2023-04-03T04:55:10;2.80;99.90
2489;DHT22;1255;48.716;9.124;2023-04-03T04:57:38;2.80;99.90
2489;DHT22;1255;48.716;9.124;2023-04-03T05:00:06;2.80;99.90
2489;DHT22;1255;48.716;9.124;2023-04-03T05:02:33;2.80;99.90
2489;DHT22;1255;48.716;9.124;2023-04-03T05:05:00;2.80;99.90
2489;DHT22;1255;48.716;9.124;2023-04-03T05:07:26;2.80;99.90
2489;DHT22;1255;48.716;9.124;2023-04-03T05:09:53;2.80;99.90
2489;DHT22;1255;48.716;9.124;2023-04-03T05:12:20;2.70;99.90
2489;DHT22;1255;48.716;9.124;2023-04-03T05:14:48;2.70;99.90
2489;DHT22;1255;48.716;9.124;2023-04-03T05:17:15;2.70;99.90
2489;DHT22;1255;48.716;9.124;2023-04-03T05:19:42;2.80;99.90
2489;DHT22;1255;48.716;9.124;2023-04-03T05:22:08;2.80;99.90
2489;DHT22;1255;48.716;9.124;2023-04-03T05:24:35;2.90;99.90
2489;DHT22;1255;48.716;9.124;2023-04-03T05:27:02;2.90;99.90
2489;DHT22;1255;48.716;9.124;2023-04-03T05:29:29;2.90;99.90
2489;DHT22;1255;48.716;9.124;2023-04-03T05:31:57;2.90;99.90
2489;DHT22;1255;48.716;9.124;2023-04-03T05:34:23;2.90;99.90
2489;DHT22;1255;48.716;9.124;2023-04-03T05:36:50;3.00;99.90
2489;DHT22;1255;48.716;9.124;2023-04-03T05:39:17;3.00;99.90
2489;DHT22;1255;48.716;9.124;2023-04-03T05:41:44;2.90;99.90
2489;DHT22;1255;48.716;9.124;2023-04-03T05:44:10;3.00;99.90
2489;DHT22;1255;48.716;9.124;2023-04-03T05:46:37;3.00;99.90
2489;DHT22;1255;48.716;9.124;2023-04-03T05:49:05;3.00;99.90
2489;DHT22;1255;48.716;9.124;2023-04-03T05:51:34;3.10;99.90
2489;DHT22;1255;48.716;9.124;2023-04-03T05:54:06;3.10;99.90
2489;DHT22;1255;48.716;9.124;2023-04-03T05:56:33;3.20;99.90
2489;DHT22;1255;48.716;9.124;2023-04-03T05:59:00;3.20;99.90
2489;DHT22;1255;48.716;9.124;2023-04-03T06:01:26;3.20;99.90
2489;DHT22;1255;48.716;9.124;2023-04-03T06:03:53;3.20;99.90
2489;DHT22;1255;48.716;9.124;2023-04-03T06:06:22;3.20;99.90
2489;DHT22;1255;48.716;9.124;2023-04-03T06:08:49;3.20;99.90
2489;DHT22;1255;48.716;9.124;2023-04-03T06:11:15;3.20;99.90
2489;DHT22;1255;48.716;9.124;2023-04-03T06:13:42;3.20;99.90
2489;DHT22;1255;48.716;9.124;2023-04-03T06:16:12;3.10;99.90
2489;DHT22;1255;48.716;9.124;2023-04-03T06:18:40;3.20;99.90
2489;DHT22;1255;48.716;9.124;2023-04-03T06:21:07;3.20;99.90
2489;DHT22;1255;48.716;9.124;2023-04-03T06:23:35;3.20;99.90
2489;DHT22;1255;48.716;9.124;2023-04-03T06:26:02;3.30;99.90
2489;DHT22;1255;48.716;9.124;2023-04-03T06:28:30;3.30;99.90
2489;DHT22;1255;48.716;9.124;2023-04-03T06:30:58;3.40;99.90
2489;DHT22;1255;48.716;9.124;2023-04-03T06:33:25;3.40;99.90
2489;DHT22;1255;48.716;9.124;2023-04-03T06:35:56;3.60;99.90
2489;DHT22;1255;48.716;9.124;2023-04-03T06:38:23;3.60;99.90
2489;DHT22;1255;48.716;9.124;2023-04-03T06:40:51;3.70;99.90
2489;DHT22;1255;48.716;9.124;2023-04-03T06:43:18;3.80;99.90
2489;DHT22;1255;48.716;9.124;2023-04-03T06:45:46;3.80;99.90
2489;DHT22;1255;48.716;9.124;2023-04-03T06:48:12;3.90;99.90
2489;DHT22;1255;48.716;9.124;2023-04-03T06:50:39;3.80;99.90
2489;DHT22;1255;48.716;9.124;2023-04-03T06:53:06;3.70;99.90
2489;DHT22;1255;48.716;9.124;2023-04-03T06:55:33;3.80;99.90
2489;DHT22;1255;48.716;9.124;2023-04-03T06:58:02;3.90;99.90
2489;DHT22;1255;48.716;9.124;2023-04-03T07:00:29;3.90;99.90
2489;DHT22;1255;48.716;9.124;2023-04-03T07:02:56;4.10;99.90
2489;DHT22;1255;48.716;9.124;2023-04-03T07:05:23;4.10;99.90
2489;DHT22;1255;48.716;9.124;2023-04-03T07:07:50;4.10;99.90
2489;DHT22;1255;48.716;9.124;2023-04-03T07:10:17;4.10;99.90
2489;DHT22;1255;48.716;9.124;2023-04-03T07:12:44;4.10;99.90
2489;DHT22;1255;48.716;9.124;2023-04-03T07:15:12;4.10;99.90
2489;DHT22;1255;48.716;9.124;2023-04-03T07:17:39;4.10;99.90
2489;DHT22;1255;48.716;9.124;2023-04-03T07:20:08;4.20;99.90
2489;DHT22;1255;48.716;9.124;2023-04-03T07:22:34;4.30;99.90
2489;DHT22;1255;48.716;9.124;2023-04-03T07:25:01;4.30;99.90
2489;DHT22;1255;48.716;9.124;2023-04-03T07:27:28;4.30;99.90
2489;DHT22;1255;48.716;9.124;2023-04-03T07:29:55;4.30;99.90
2489;DHT22;1255;48.716;9.124;2023-04-03T07:32:23;4.40;99.90
2489;DHT22;1255;48.716;9.124;2023-04-03T07:34:50;4.50;99.90
2489;DHT22;1255;48.716;9.124;2023-04-03T07:37:17;4.50;99.90
2489;DHT22;1255;48.716;9.124;2023-04-03T07:39:44;4.60;99.90
2489;DHT22;1255;48.716;9.124;2023-04-03T07:42:11;4.70;99.90
2489;DHT22;1255;48.716;9.124;2023-04-03T07:44:38;4.80;99.90
2489;DHT22;1255;48.716;9.124;2023-04-03T07:47:05;4.90;99.90
2489;DHT22;1255;48.716;9.124;2023-04-03T07:49:34;5.00;99.90
2489;DHT22;1255;48.716;9.124;2023-04-03T07:52:03;5.20;99.90
2489;DHT22;1255;48.716;9.124;2023-04-03T07:54:30;5.40;99.90
2489;DHT22;1255;48.716;9.124;2023-04-03T07:56:57;5.20;99.90
2489;DHT22;1255;48.716;9.124;2023-04-03T07:59:24;5.30;99.90
2489;DHT22;1255;48.716;9.124;2023-04-03T08:01:50;5.30;99.90
2489;DHT22;1255;48.716;9.124;2023-04-03T08:04:17;5.40;99.90
2489;DHT22;1255;48.716;9.124;2023-04-03T08:06:45;5.40;99.90
2489;DHT22;1255;48.716;9.124;2023-04-03T08:09:12;5.70;99.90
2489;DHT22;1255;48.716;9.124;2023-04-03T08:11:39;5.70;99.90
2489;DHT22;1255;48.716;9.124;2023-04-03T08:14:06;5.70;99.90
2489;DHT22;1255;48.716;9.124;2023-04-03T08:16:33;5.80;99.90
2489;DHT22;1255;48.716;9.124;2023-04-03T08:19:00;5.90;99.90
2489;DHT22;1255;48.716;9.124;2023-04-03T08:21:26;6.20;99.90
2489;DHT22;1255;48.716;9.124;2023-04-03T08:23:54;6.40;99.90
2489;DHT22;1255;48.716;9.124;2023-04-03T08:26:22;6.40;99.90
2489;DHT22;1255;48.716;9.124;2023-04-03T08:28:48;6.30;99.90
2489;DHT22;1255;48.716;9.124;2023-04-03T08:31:17;6.30;99.90
2489;DHT22;1255;48.716;9.124;2023-04-03T08:33:46;6.30;99.90
2489;DHT22;1255;48.716;9.124;2023-04-03T08:36:20;6.30;99.90
2489;DHT22;1255;48.716;9.124;2023-04-03T08:38:48;6.30;99.90
2489;DHT22;1255;48.716;9.124;2023-04-03T08:41:20;6.40;99.90
2489;DHT22;1255;48.716;9.124;2023-04-03T08:44:04;6.40;99.90
2489;DHT22;1255;48.716;9.124;2023-04-03T08:46:47;6.40;99.90
2489;DHT22;1255;48.716;9.124;2023-04-03T08:49:26;6.70;99.90
2489;DHT22;1255;48.716;9.124;2023-04-03T08:51:54;6.80;99.90
2489;DHT22;1255;48.716;9.124;2023-04-03T08:54:27;6.90;99.90
2489;DHT22;1255;48.716;9.124;2023-04-03T08:56:58;7.00;99.90
2489;DHT22;1255;48.716;9.124;2023-04-03T08:59:29;7.00;99.90
2489;DHT22;1255;48.716;9.124;2023-04-03T09:02:00;7.30;99.90
2489;DHT22;1255;48.716;9.124;2023-04-03T09:04:31;7.50;99.90
2489;DHT22;1255;48.716;9.124;2023-04-03T09:07:04;7.80;99.90
2489;DHT22;1255;48.716;9.124;2023-04-03T09:09:35;8.00;99.90
2489;DHT22;1255;48.716;9.124;2023-04-03T09:12:13;8.20;99.90
2489;DHT22;1255;48.716;9.124;2023-04-03T09:14:46;8.40;99.90
2489;DHT22;1255;48.716;9.124;2023-04-03T09:17:24;8.70;99.90
2489;DHT22;1255;48.716;9.124;2023-04-03T09:19:58;8.90;99.90
2489;DHT22;1255;48.716;9.124;2023-04-03T09:22:32;8.80;99.90
2489;DHT22;1255;48.716;9.124;2023-04-03T09:25:05;8.40;99.90
2489;DHT22;1255;48.716;9.124;2023-04-03T09:27:35;8.10;99.90
2489;DHT22;1255;48.716;9.124;2023-04-03T09:30:02;7.80;99.90
2489;DHT22;1255;48.716;9.124;2023-04-03T09:32:30;7.50;99.90
2489;DHT22;1255;48.716;9.124;2023-04-03T09:34:59;7.20;99.90
2489;DHT22;1255;48.716;9.124;2023-04-03T09:37:40;7.10;99.90
2489;DHT22;1255;48.716;9.124;2023-04-03T09:40:33;7.00;99.90
2489;DHT22;1255;48.716;9.124;2023-04-03T09:43:18;6.80;99.90
2489;DHT22;1255;48.716;9.124;2023-04-03T09:45:48;6.70;99.90
2489;DHT22;1255;48.716;9.124;2023-04-03T09:48:17;6.70;99.90
2489;DHT22;1255;48.716;9.124;2023-04-03T09:50:59;6.70;99.90
2489;DHT22;1255;48.716;9.124;2023-04-03T09:53:31;6.80;99.90
2489;DHT22;1255;48.716;9.124;2023-04-03T09:55:59;6.90;99.90
2489;DHT22;1255;48.716;9.124;2023-04-03T09:58:31;7.10;99.90
2489;DHT22;1255;48.716;9.124;2023-04-03T10:01:00;7.30;99.90
2489;DHT22;1255;48.716;9.124;2023-04-03T10:03:30;7.60;99.90
2489;DHT22;1255;48.716;9.124;2023-04-03T10:05:58;7.60;99.20
2489;DHT22;1255;48.716;9.124;2023-04-03T10:08:28;7.50;99.90
2489;DHT22;1255;48.716;9.124;2023-04-03T10:11:10;7.30;99.60
2489;DHT22;1255;48.716;9.124;2023-04-03T10:13:49;7.10;99.90
2489;DHT22;1255;48.716;9.124;2023-04-03T10:16:18;7.00;99.90
2489;DHT22;1255;48.716;9.124;2023-04-03T10:18:49;7.20;99.90
2489;DHT22;1255;48.716;9.124;2023-04-03T10:21:29;7.30;99.90
2489;DHT22;1255;48.716;9.124;2023-04-03T10:24:06;7.30;99.90
2489;DHT22;1255;48.716;9.124;2023-04-03T10:26:41;7.30;99.90
2489;DHT22;1255;48.716;9.124;2023-04-03T10:29:19;7.20;99.90
2489;DHT22;1255;48.716;9.124;2023-04-03T10:31:57;7.10;99.90
2489;DHT22;1255;48.716;9.124;2023-04-03T10:34:30;6.70;99.90
2489;DHT22;1255;48.716;9.124;2023-04-03T10:37:04;6.70;99.90
2489;DHT22;1255;48.716;9.124;2023-04-03T10:39:37;6.60;99.90
2489;DHT22;1255;48.716;9.124;2023-04-03T10:42:11;6.50;99.90
2489;DHT22;1255;48.716;9.124;2023-04-03T10:44:52;6.60;99.90
2489;DHT22;1255;48.716;9.124;2023-04-03T10:47:24;6.80;99.90
2489;DHT22;1255;48.716;9.124;2023-04-03T10:50:01;6.70;99.00
2489;DHT22;1255;48.716;9.124;2023-04-03T10:52:39;6.60;99.50
2489;DHT22;1255;48.716;9.124;2023-04-03T10:55:22;6.50;99.60
2489;DHT22;1255;48.716;9.124;2023-04-03T10:57:51;6.40;99.70
2489;DHT22;1255;48.716;9.124;2023-04-03T11:00:25;6.30;99.90
2489;DHT22;1255;48.716;9.124;2023-04-03T11:02:57;6.30;99.70
2489;DHT22;1255;48.716;9.124;2023-04-03T11:05:31;6.20;99.90
2489;DHT22;1255;48.716;9.124;2023-04-03T11:08:01;6.30;99.90
2489;DHT22;1255;48.716;9.124;2023-04-03T11:10:35;6.40;99.90
2489;DHT22;1255;48.716;9.124;2023-04-03T11:13:10;6.50;99.90
2489;DHT22;1255;48.716;9.124;2023-04-03T11:15:39;6.50;99.90
2489;DHT22;1255;48.716;9.124;2023-04-03T11:18:09;6.40;99.90
2489;DHT22;1255;48.716;9.124;2023-04-03T11:20:38;6.30;99.90
2489;DHT22;1255;48.716;9.124;2023-04-03T11:23:15;6.20;99.90
2489;DHT22;1255;48.716;9.124;2023-04-03T11:25:44;6.10;99.90
2489;DHT22;1255;48.716;9.124;2023-04-03T11:28:14;6.10;99.90
2489;DHT22;1255;48.716;9.124;2023-04-03T11:30:47;6.00;99.90
2489;DHT22;1255;48.716;9.124;2023-04-03T11:33:30;5.90;99.70
2489;DHT22;1255;48.716;9.124;2023-04-03T11:36:02;5.90;99.90
2489;DHT22;1255;48.716;9.124;2023-04-03T11:38:33;6.00;99.90
2489;DHT22;1255;48.716;9.124;2023-04-03T11:41:02;6.00;99.90
2489;DHT22;1255;48.716;9.124;2023-04-03T11:43:30;6.00;99.90
2489;DHT22;1255;48.716;9.124;2023-04-03T11:46:00;6.00;99.90
2489;DHT22;1255;48.716;9.124;2023-04-03T11:48:49;5.90;99.70
2489;DHT22;1255;48.716;9.124;2023-04-03T11:51:42;6.00;99.90
2489;DHT22;1255;48.716;9.124;2023-04-03T12:06:42;6.30;98.40
2489;DHT22;1255;48.716;9.124;2023-04-03T12:09:23;6.60;99.20
2489;DHT22;1255;48.716;9.124;2023-04-03T12:11:50;6.70;99.80
2489;DHT22;1255;48.716;9.124;2023-04-03T12:14:17;6.80;99.70
2489;DHT22;1255;48.716;9.124;2023-04-03T12:16:46;6.80;99.40
2489;DHT22;1255;48.716;9.124;2023-04-03T12:19:35;6.90;98.80
2489;DHT22;1255;48.716;9.124;2023-04-03T12:22:11;6.70;99.10
2489;DHT22;1255;48.716;9.124;2023-04-03T12:24:39;6.60;99.10
2489;DHT22;1255;48.716;9.124;2023-04-03T12:27:17;6.50;99.20
2489;DHT22;1255;48.716;9.124;2023-04-03T12:29:50;6.40;98.90
2489;DHT22;1255;48.716;9.124;2023-04-03T12:32:25;6.30;99.10
2489;DHT22;1255;48.716;9.124;2023-04-03T12:35:08;6.30;99.30
2489;DHT22;1255;48.716;9.124;2023-04-03T12:37:48;6.30;99.70
2489;DHT22;1255;48.716;9.124;2023-04-03T12:40:24;6.30;99.60
2489;DHT22;1255;48.716;9.124;2023-04-03T12:43:08;6.40;99.40
2489;DHT22;1255;48.716;9.124;2023-04-03T12:45:42;6.50;99.30
2489;DHT22;1255;48.716;9.124;2023-04-03T12:48:14;6.70;99.20
2489;DHT22;1255;48.716;9.124;2023-04-03T12:50:44;7.00;99.30
2489;DHT22;1255;48.716;9.124;2023-04-03T12:53:14;7.30;99.10
2489;DHT22;1255;48.716;9.124;2023-04-03T12:55:42;7.70;98.10
2489;DHT22;1255;48.716;9.124;2023-04-03T12:58:19;7.90;97.70
2489;DHT22;1255;48.716;9.124;2023-04-03T13:00:59;8.00;97.50
2489;DHT22;1255;48.716;9.124;2023-04-03T13:03:26;7.80;96.90
2489;DHT22;1255;48.716;9.124;2023-04-03T13:05:57;7.60;96.10
2489;DHT22;1255;48.716;9.124;2023-04-03T13:08:25;7.50;96.80
2489;DHT22;1255;48.716;9.124;2023-04-03T13:10:55;7.50;96.80
2489;DHT22;1255;48.716;9.124;2023-04-03T13:13:23;7.60;96.80
2489;DHT22;1255;48.716;9.124;2023-04-03T13:15:52;7.60;95.30
2489;DHT22;1255;48.716;9.124;2023-04-03T13:18:25;7.60;95.10
2489;DHT22;1255;48.716;9.124;2023-04-03T13:20:57;7.70;96.40
2489;DHT22;1255;48.716;9.124;2023-04-03T13:23:26;7.90;96.10
2489;DHT22;1255;48.716;9.124;2023-04-03T13:25:53;8.20;96.40
2489;DHT22;1255;48.716;9.124;2023-04-03T13:28:22;8.40;97.00
2489;DHT22;1255;48.716;9.124;2023-04-03T13:30:59;8.60;96.40
2489;DHT22;1255;48.716;9.124;2023-04-03T13:33:29;8.90;95.60
2489;DHT22;1255;48.716;9.124;2023-04-03T13:36:03;9.10;95.30
2489;DHT22;1255;48.716;9.124;2023-04-03T13:38:32;9.20;94.30
2489;DHT22;1255;48.716;9.124;2023-04-03T13:41:01;9.50;95.00
2489;DHT22;1255;48.716;9.124;2023-04-03T13:43:32;9.50;94.00
2489;DHT22;1255;48.716;9.124;2023-04-03T13:46:04;9.30;94.20
2489;DHT22;1255;48.716;9.124;2023-04-03T13:48:39;9.10;94.40
2489;DHT22;1255;48.716;9.124;2023-04-03T13:51:18;8.80;94.70
2489;DHT22;1255;48.716;9.124;2023-04-03T13:53:49;8.40;93.30
2489;DHT22;1255;48.716;9.124;2023-04-03T13:56:23;8.10;93.80
2489;DHT22;1255;48.716;9.124;2023-04-03T13:59:00;8.00;94.40
2489;DHT22;1255;48.716;9.124;2023-04-03T14:01:34;7.90;94.90
2489;DHT22;1255;48.716;9.124;2023-04-03T14:04:12;7.90;94.70
2489;DHT22;1255;48.716;9.124;2023-04-03T14:06:40;7.90;94.90
2489;DHT22;1255;48.716;9.124;2023-04-03T14:09:07;7.90;94.30
2489;DHT22;1255;48.716;9.124;2023-04-03T14:11:34;7.90;95.00
2489;DHT22;1255;48.716;9.124;2023-04-03T14:14:05;8.00;95.40
2489;DHT22;1255;48.716;9.124;2023-04-03T14:16:36;8.40;94.50
2489;DHT22;1255;48.716;9.124;2023-04-03T14:19:03;8.60;94.10
2489;DHT22;1255;48.716;9.124;2023-04-03T14:21:30;8.60;94.30
2489;DHT22;1255;48.716;9.124;2023-04-03T14:23:59;8.40;93.80
2489;DHT22;1255;48.716;9.124;2023-04-03T14:26:28;8.10;93.70
2489;DHT22;1255;48.716;9.124;2023-04-03T14:28:55;7.80;94.50
2489;DHT22;1255;48.716;9.124;2023-04-03T14:33:50;7.60;95.10
2489;DHT22;1255;48.716;9.124;2023-04-03T14:36:19;7.40;94.80
2489;DHT22;1255;48.716;9.124;2023-04-03T14:38:48;7.30;94.80
2489;DHT22;1255;48.716;9.124;2023-04-03T14:41:18;7.20;95.10
2489;DHT22;1255;48.716;9.124;2023-04-03T14:43:46;7.10;95.40
2489;DHT22;1255;48.716;9.124;2023-04-03T14:46:15;7.00;95.80
2489;DHT22;1255;48.716;9.124;2023-04-03T14:48:43;6.90;95.00
2489;DHT22;1255;48.716;9.124;2023-04-03T14:51:11;6.90;95.10
2489;DHT22;1255;48.716;9.124;2023-04-03T14:53:38;7.00;95.20
2489;DHT22;1255;48.716;9.124;2023-04-03T14:56:11;7.50;95.50
2489;DHT22;1255;48.716;9.124;2023-04-03T14:58:39;8.00;95.10
2489;DHT22;1255;48.716;9.124;2023-04-03T15:01:06;8.20;94.80
2489;DHT22;1255;48.716;9.124;2023-04-03T15:03:33;8.70;95.20
2489;DHT22;1255;48.716;9.124;2023-04-03T15:05:59;9.30;94.10
2489;DHT22;1255;48.716;9.124;2023-04-03T15:08:27;9.50;93.70
2489;DHT22;1255;48.716;9.124;2023-04-03T15:10:57;9.50;91.90
2489;DHT22;1255;48.716;9.124;2023-04-03T15:13:24;9.00;92.40
2489;DHT22;1255;48.716;9.124;2023-04-03T15:15:52;8.70;93.10
2489;DHT22;1255;48.716;9.124;2023-04-03T15:18:22;8.40;93.30
2489;DHT22;1255;48.716;9.124;2023-04-03T15:20:49;8.20;93.30
2489;DHT22;1255;48.716;9.124;2023-04-03T15:23:16;8.00;93.40
2489;DHT22;1255;48.716;9.124;2023-04-03T15:25:43;8.00;94.00
2489;DHT22;1255;48.716;9.124;2023-04-03T15:28:18;7.80;93.10
2489;DHT22;1255;48.716;9.124;2023-04-03T15:30:45;7.70;93.00
2489;DHT22;1255;48.716;9.124;2023-04-03T15:33:13;7.50;93.70
2489;DHT22;1255;48.716;9.124;2023-04-03T15:35:41;7.40;93.30
2489;DHT22;1255;48.716;9.124;2023-04-03T15:38:08;7.40;93.60
2489;DHT22;1255;48.716;9.124;2023-04-03T15:40:34;7.40;93.70
2489;DHT22;1255;48.716;9.124;2023-04-03T15:43:01;7.40;93.40
2489;DHT22;1255;48.716;9.124;2023-04-03T15:45:29;7.50;93.90
2489;DHT22;1255;48.716;9.124;2023-04-03T15:47:57;7.60;93.50
2489;DHT22;1255;48.716;9.124;2023-04-03T15:50:25;7.70;93.20
2489;DHT22;1255;48.716;9.124;2023-04-03T15:52:52;7.60;91.80
2489;DHT22;1255;48.716;9.124;2023-04-03T15:55:20;7.60;92.10
2489;DHT22;1255;48.716;9.124;2023-04-03T15:57:47;7.60;91.90
2489;DHT22;1255;48.716;9.124;2023-04-03T16:00:15;7.50;92.60
2489;DHT22;1255;48.716;9.124;2023-04-03T16:02:42;7.30;92.00
2489;DHT22;1255;48.716;9.124;2023-04-03T16:05:09;7.20;92.80
2489;DHT22;1255;48.716;9.124;2023-04-03T16:07:39;7.10;92.70
2489;DHT22;1255;48.716;9.124;2023-04-03T16:10:07;7.00;93.10
2489;DHT22;1255;48.716;9.124;2023-04-03T16:12:35;7.00;93.50
2489;DHT22;1255;48.716;9.124;2023-04-03T16:15:03;7.30;93.90
2489;DHT22;1255;48.716;9.124;2023-04-03T16:17:31;7.60;93.00
2489;DHT22;1255;48.716;9.124;2023-04-03T16:19:58;7.70;92.10
2489;DHT22;1255;48.716;9.124;2023-04-03T16:22:27;7.90;92.90
2489;DHT22;1255;48.716;9.124;2023-04-03T16:24:55;8.00;92.30
2489;DHT22;1255;48.716;9.124;2023-04-03T16:27:22;8.00;92.30
2489;DHT22;1255;48.716;9.124;2023-04-03T16:29:52;8.10;92.10
2489;DHT22;1255;48.716;9.124;2023-04-03T16:32:20;8.10;91.70
2489;DHT22;1255;48.716;9.124;2023-04-03T16:34:46;8.00;91.60
2489;DHT22;1255;48.716;9.124;2023-04-03T16:37:13;7.80;91.60
2489;DHT22;1255;48.716;9.124;2023-04-03T16:39:40;7.50;92.00
2489;DHT22;1255;48.716;9.124;2023-04-03T16:42:08;7.30;90.90
2489;DHT22;1255;48.716;9.124;2023-04-03T16:44:35;7.10;91.50
2489;DHT22;1255;48.716;9.124;2023-04-03T16:47:02;7.00;91.30
2489;DHT22;1255;48.716;9.124;2023-04-03T16:49:29;6.80;91.70
2489;DHT22;1255;48.716;9.124;2023-04-03T16:51:58;6.50;90.90